Sopchoppy, Florida
Current Conditions -  °F | °C
As of 7:53 AM on Thursday 30 Oct 2014 (Local Time) from KTLH Reporting Station
Scattered Clouds Scattered Clouds  
Wind Chill: 63°   Ceiling: Unl
Heat Index: 63°   Visibility: 10mi
Dew Point: 49°   Wind: 5mph
Humidity: 60%   Direction: 360°N
Pressure: 30.01"   Gusts: NA
Location:  30.06°N, 84.49°W
Report Text: KTLH 301153Z 36004KT 10SM FEW025 SCT100 17/09 A3001 RMK AO2 SLP161 T01720094 10200 20172 53009
Loading
Personal Weather Stations






























Interactive Weather Map New forecast layout! Learn more

10-Day Weather Forecast

Advertisements
Track Severe Weather on mobile